Airfield :
LOGIN :

Register | Disclaimer

   EN    FR    IT 

 










Legend :    VFR   Marginal VFR   IFR   Intensive IFR   Very Intensive IFR
Visi :
Ceiling :
>= 8 km
>= 3000ft
5 to 8 km
1000 to 3000 ft
1500m to 5 km
500 to 1000 ft
800 to 1500m
200 to 500 ft
< 800m
< 200 ft
Symbols :   Thunderstorms  Fog  Heavy snow  Heavy precipitations  Wind > 20 kt
SIGMETs :     Misc.  Thunderstorms  Icing  Turbulence  Mountain Waves  Volcanic Ashes






- Airport Elevation : 188 ft
- IATA code : ORB


ESOE - Örebro

CURRENT METAR :
  • 191750Z AUTO 21005KT 9999 NCD 00/M02 Q1032

EXPIRED METARs :
  • 191720Z AUTO 19005KT 9999 NCD 00/M02 Q1032
  • 191650Z AUTO 20006KT 9999 NCD 01/M01 Q1031
  • 191620Z AUTO 21006KT 9999 NCD 01/M02 Q1031
  • 191550Z 22006KT CAVOK 02/M01 Q1031
  • 191520Z 24005KT CAVOK 03/M02 Q1030

TAF TAF ESOE
Valid from the 19 at 18:00 until the 19 at 23:00 UTC


191730Z 1918/1923 21005KT CAVOK



MET'MAP, your aeronautical weather chart ! - Copyright ORBIFLY December 2007 - Disclaimer

ORBIFLY MET'MAP TEAM :

Programming & Development : Alexandra Zaïnal
Concept & original design : Baudouin d'Aumeries
Assistance for programming : Marc-Olivier Méhu
Technical & hardware support : Manuel Goepfert

Contact : metmap@orbifly.com




SOURCES & CREDITS :

   NOAA